PolandFixed distance
Jura Ultra 50
26 Sep2020
Distance
51.8km
Finishers
10884 men24 women
Winning time
4:24:04h
Median pace
8.37km/h
Pace distribution
108 finishers · 4.32–11.77 km/h · mean 8.24
Every finisher ran the same 51.8 km course, so these paces are directly comparable.
Histogram of finisher pace. 108 finishers ranged from 4.32 to 11.77 kilometres per hour, with a mean of 8.24 and a median of 8.37. The busiest band is 8.5 to 9.0 kilometres per hour, with 20 finishers.
Results
Ranks 1–50 of 108
| Rank | Runner | Time | Pace | Cat. | Placing |
|---|---|---|---|---|---|
| 1 | Trybunalski | 4:24:04h | 11.77 | M23 | 1st M · 1st M23 |
| 2 | Wielkopolski | 4:27:09h | 11.63 | M45 | 2nd M · 1st M45 |
| 3 | Dolne | 4:34:04h | 11.34 | — | 3rd M |
| 4 | Tri Team Lubań | 4:41:41h | 11.03 | M40 | 4th M · 1st M40 |
| 5 | Kaja Team | 4:48:35h | 10.77 | M40 | 5th M · 2nd M40 |
| 6 | Reshape Runners | 4:50:53h | 10.69 | M40 | 6th M · 3rd M40 |
| 7 | Straszyn Ultra Team | 4:54:10h | 10.56 | M23 | 7th M · 2nd M23 |
| 8 | Straszyn Ultra Team | 4:54:11h | 10.56 | W35 | 1st F · 1st W35 |
| 9 | *Chrzanów | 4:57:36h | 10.44 | M35 | 8th M · 1st M35 |
| 10 | RPM Dziki W Górach | 4:57:59h | 10.43 | M40 | 9th M · 4th M40 |
| 11 | Vege Runners | 4:58:49h | 10.40 | M40 | 10th M · 5th M40 |
| 12 | Kaja Team | 5:02:59h | 10.26 | M35 | 11th M · 2nd M35 |
| 13 | *Opoczno | 5:04:26h | 10.21 | MU23 | 12th M · 1st MU23 |
| 14 | *Skarżysko-Kamienna | 5:07:57h | 10.09 | W35 | 2nd F · 2nd W35 |
| 15 | Zabiegani Częstochowa/... | 5:11:15h | 9.99 | W40 | 3rd F · 1st W40 |
| 16 | Trail Runners Jaworzno | 5:11:44h | 9.97 | M40 | 13th M · 6th M40 |
| 17 | Gawełki Team/Pozytywni... | 5:14:00h | 9.90 | W35 | 4th F · 3rd W35 |
| 18 | Wieluń Ultra | 5:18:20h | 9.76 | M55 | 14th M · 1st M55 |
| 19 | Gmina Strzelce Opolskie | 5:22:04h | 9.65 | M40 | 15th M · 7th M40 |
| 20 | Team Urodzeni Biegacze | 5:27:16h | 9.50 | M35 | 16th M · 3rd M35 |
| 21 | *Pielgrzymowice | 5:28:10h | 9.47 | — | 17th M |
| 22 | RPM Dziki W Górach | 5:31:35h | 9.37 | M23 | 18th M · 3rd M23 |
| 23 | *Gdynia | 5:31:36h | 9.37 | W35 | 5th F · 4th W35 |
| 24 | *Kośmidry | 5:33:18h | 9.32 | M40 | 19th M · 8th M40 |
| 25 | Gawełki Team/Pozytywni... | 5:35:40h | 9.26 | M45 | 20th M · 2nd M45 |
| 26 | *Szczecin | 5:37:32h | 9.21 | — | 21st M |
| 27 | Porunne Furganie | 5:40:36h | 9.13 | M40 | 22nd M · 9th M40 |
| 28 | Alianca de Misericordia | 5:43:12h | 9.06 | M23 | 23rd M · 4th M23 |
| 29 | Wiran Team/Astma Team | 5:46:13h | 8.98 | M40 | 24th M · 10th M40 |
| 30 | Biegamyrazem.PL | 5:46:24h | 8.97 | M35 | 25th M · 4th M35 |
| 31 | WM Triself | 5:47:10h | 8.95 | M35 | 26th M · 5th M35 |
| 32 | Biegowa Świdnica | 5:48:58h | 8.91 | M45 | 27th M · 3rd M45 |
| 33 | *Poznań | 5:50:29h | 8.87 | W23 | 6th F · 1st W23 |
| 34 | Czerwonak Biega | 5:51:06h | 8.85 | — | 28th M |
| 35 | Leśne | 5:52:00h | 8.83 | — | 29th M |
| 36 | SKY-Trans Toruń | 5:52:42h | 8.81 | W23 | 7th F · 2nd W23 |
| 37 | *Karniowice | 5:54:08h | 8.78 | M50 | 30th M · 1st M50 |
| 38 | Pega Runners | 5:56:42h | 8.71 | M45 | 31st M · 4th M45 |
| 39 | *Lodz | 5:56:55h | 8.71 | M35 | 32nd M · 6th M35 |
| 40 | Przedwojewski_Mountain... | 5:57:32h | 8.69 | M23 | 33rd M · 5th M23 |
| 41 | Reshape Runners | 5:57:52h | 8.69 | M50 | 34th M · 2nd M50 |
| 42 | Krok PO Kroku | 5:58:58h | 8.66 | M40 | 35th M · 11th M40 |
| 43 | Lisy Pustyni | 6:00:51h | 8.61 | M40 | 36th M · 12th M40 |
| 44 | Ledwozipia | 6:00:57h | 8.61 | M45 | 37th M · 5th M45 |
| 45 | *Wrocław | 6:03:24h | 8.55 | M23 | 38th M · 6th M23 |
| 46 | Natural Born Runners | 6:03:27h | 8.55 | M23 | 39th M · 7th M23 |
| 47 | *Kraków | 6:05:10h | 8.51 | — | 40th M |
| 48 | Wielkopolski | 6:05:35h | 8.50 | M35 | 41st M · 7th M35 |
| 49 | Biskupi | 6:08:25h | 8.44 | M40 | 42nd M · 13th M40 |
| 50 | STC Runners | 6:08:25h | 8.44 | M40 | 42nd M · 13th M40 |
- 1Trybunalski1st M · 1st M23Time4:24:04hPace11.77Cat.M23
- 2Wielkopolski2nd M · 1st M45Time4:27:09hPace11.63Cat.M45
- 3Dolne3rd MTime4:34:04hPace11.34
- 4Tri Team Lubań4th M · 1st M40Time4:41:41hPace11.03Cat.M40
- 5Kaja Team5th M · 2nd M40Time4:48:35hPace10.77Cat.M40
- 6Reshape Runners6th M · 3rd M40Time4:50:53hPace10.69Cat.M40
- 7Straszyn Ultra Team7th M · 2nd M23Time4:54:10hPace10.56Cat.M23
- 8Straszyn Ultra Team1st F · 1st W35Time4:54:11hPace10.56Cat.W35
- 9*Chrzanów8th M · 1st M35Time4:57:36hPace10.44Cat.M35
- 10RPM Dziki W Górach9th M · 4th M40Time4:57:59hPace10.43Cat.M40
- 11Vege Runners10th M · 5th M40Time4:58:49hPace10.40Cat.M40
- 12Kaja Team11th M · 2nd M35Time5:02:59hPace10.26Cat.M35
- 13*Opoczno12th M · 1st MU23Time5:04:26hPace10.21Cat.MU23
- 14*Skarżysko-Kamienna2nd F · 2nd W35Time5:07:57hPace10.09Cat.W35
- 15Zabiegani Częstochowa/...3rd F · 1st W40Time5:11:15hPace9.99Cat.W40
- 16Trail Runners Jaworzno13th M · 6th M40Time5:11:44hPace9.97Cat.M40
- 17Gawełki Team/Pozytywni...4th F · 3rd W35Time5:14:00hPace9.90Cat.W35
- 18Wieluń Ultra14th M · 1st M55Time5:18:20hPace9.76Cat.M55
- 19Gmina Strzelce Opolskie15th M · 7th M40Time5:22:04hPace9.65Cat.M40
- 20Team Urodzeni Biegacze16th M · 3rd M35Time5:27:16hPace9.50Cat.M35
- 21*Pielgrzymowice17th MTime5:28:10hPace9.47
- 22RPM Dziki W Górach18th M · 3rd M23Time5:31:35hPace9.37Cat.M23
- 23*Gdynia5th F · 4th W35Time5:31:36hPace9.37Cat.W35
- 24*Kośmidry19th M · 8th M40Time5:33:18hPace9.32Cat.M40
- 25Gawełki Team/Pozytywni...20th M · 2nd M45Time5:35:40hPace9.26Cat.M45
- 26*Szczecin21st MTime5:37:32hPace9.21
- 27Porunne Furganie22nd M · 9th M40Time5:40:36hPace9.13Cat.M40
- 28Alianca de Misericordia23rd M · 4th M23Time5:43:12hPace9.06Cat.M23
- 29Wiran Team/Astma Team24th M · 10th M40Time5:46:13hPace8.98Cat.M40
- 30Biegamyrazem.PL25th M · 4th M35Time5:46:24hPace8.97Cat.M35
- 31WM Triself26th M · 5th M35Time5:47:10hPace8.95Cat.M35
- 32Biegowa Świdnica27th M · 3rd M45Time5:48:58hPace8.91Cat.M45
- 33*Poznań6th F · 1st W23Time5:50:29hPace8.87Cat.W23
- 34Czerwonak Biega28th MTime5:51:06hPace8.85
- 35Leśne29th MTime5:52:00hPace8.83
- 36SKY-Trans Toruń7th F · 2nd W23Time5:52:42hPace8.81Cat.W23
- 37*Karniowice30th M · 1st M50Time5:54:08hPace8.78Cat.M50
- 38Pega Runners31st M · 4th M45Time5:56:42hPace8.71Cat.M45
- 39*Lodz32nd M · 6th M35Time5:56:55hPace8.71Cat.M35
- 40Przedwojewski_Mountain...33rd M · 5th M23Time5:57:32hPace8.69Cat.M23
- 41Reshape Runners34th M · 2nd M50Time5:57:52hPace8.69Cat.M50
- 42Krok PO Kroku35th M · 11th M40Time5:58:58hPace8.66Cat.M40
- 43Lisy Pustyni36th M · 12th M40Time6:00:51hPace8.61Cat.M40
- 44Ledwozipia37th M · 5th M45Time6:00:57hPace8.61Cat.M45
- 45*Wrocław38th M · 6th M23Time6:03:24hPace8.55Cat.M23
- 46Natural Born Runners39th M · 7th M23Time6:03:27hPace8.55Cat.M23
- 47*Kraków40th MTime6:05:10hPace8.51
- 48Wielkopolski41st M · 7th M35Time6:05:35hPace8.50Cat.M35
- 49Biskupi42nd M · 13th M40Time6:08:25hPace8.44Cat.M40
- 50STC Runners42nd M · 13th M40Time6:08:25hPace8.44Cat.M40
Showing ranks 1–50 of 108